createdAt,value
2023-04-28T00:00:59.307Z,101729.34
2023-04-28T00:03:28.880Z,101722.44
2023-04-28T00:05:58.275Z,101720.69
2023-04-28T00:08:27.605Z,101713.75
2023-04-28T00:10:56.660Z,101718.78
2023-04-28T00:13:27.228Z,101710.84
2023-04-28T00:15:56.537Z,101715.91
2023-04-28T00:18:25.767Z,101712.53
2023-04-28T00:20:55.120Z,101711.00
2023-04-28T00:23:24.208Z,101712.66
2023-04-28T00:25:53.585Z,101704.06
2023-04-28T00:28:33.502Z,101704.81
2023-04-28T00:31:12.397Z,101699.47
2023-04-28T00:33:42.154Z,101704.88
2023-04-28T00:36:12.098Z,101698.06
2023-04-28T00:38:41.179Z,101700.88
2023-04-28T00:41:11.995Z,101693.78
2023-04-28T00:43:48.548Z,101691.47
2023-04-28T00:46:24.079Z,101696.81
2023-04-28T00:48:53.480Z,101691.19
2023-04-28T00:51:22.577Z,101683.59
2023-04-28T00:53:52.597Z,101680.31
2023-04-28T00:56:22.469Z,101689.00
2023-04-28T00:58:51.585Z,101676.00
2023-04-28T01:01:22.557Z,101680.00
2023-04-28T01:03:52.296Z,101683.78
2023-04-28T01:06:22.114Z,101678.41
2023-04-28T01:08:53.375Z,101673.31
2023-04-28T01:11:22.458Z,101678.00
2023-04-28T01:14:17.755Z,101680.78
2023-04-28T01:16:48.550Z,101675.84
2023-04-28T01:19:22.096Z,101672.66
2023-04-28T01:21:51.926Z,101687.56
2023-04-28T01:24:26.421Z,101680.13
2023-04-28T01:26:56.928Z,101680.72
2023-04-28T01:29:26.417Z,101684.22
2023-04-28T01:31:55.861Z,101682.56
2023-04-28T01:34:25.077Z,101675.56
2023-04-28T01:36:54.192Z,101678.22
2023-04-28T01:39:23.342Z,101668.97
2023-04-28T01:41:53.869Z,101667.53
2023-04-28T01:44:22.951Z,101668.66
2023-04-28T01:46:51.990Z,101670.72
2023-04-28T01:49:21.782Z,101668.97
2023-04-28T01:51:50.946Z,101671.53
2023-04-28T01:54:20.024Z,101670.50
2023-04-28T01:56:49.190Z,101662.94
2023-04-28T01:59:21.424Z,101651.88
2023-04-28T02:01:50.604Z,101659.59
2023-04-28T02:04:19.961Z,101656.50
2023-04-28T02:06:49.202Z,101656.59
2023-04-28T02:09:18.375Z,101653.88
2023-04-28T02:11:47.528Z,101661.63
2023-04-28T02:14:16.781Z,101660.88
2023-04-28T02:16:47.611Z,101657.91
2023-04-28T02:19:17.002Z,101650.25
2023-04-28T02:21:46.075Z,101654.53
2023-04-28T02:24:16.455Z,101648.75
2023-04-28T02:26:45.827Z,101653.34
2023-04-28T02:29:14.944Z,101639.94
2023-04-28T02:31:44.030Z,101642.53
2023-04-28T02:34:16.176Z,101638.38
2023-04-28T02:36:45.520Z,101640.97
2023-04-28T02:39:14.746Z,101634.13
2023-04-28T02:41:43.814Z,101637.94
2023-04-28T02:44:12.991Z,101639.50
2023-04-28T02:46:42.380Z,101631.91
2023-04-28T02:49:11.484Z,101632.75
2023-04-28T02:51:41.941Z,101624.34
2023-04-28T02:54:11.172Z,101622.06
2023-04-28T02:56:40.920Z,101619.63
2023-04-28T02:59:10.040Z,101613.59
2023-04-28T03:01:39.212Z,101608.78
2023-04-28T03:04:08.553Z,101611.25
2023-04-28T03:06:38.207Z,101607.81
2023-04-28T03:09:08.849Z,101604.19
2023-04-28T03:11:38.203Z,101599.56
2023-04-28T03:14:07.389Z,101596.31
2023-04-28T03:16:36.473Z,101586.72
2023-04-28T03:19:05.649Z,101585.66
2023-04-28T03:21:34.828Z,101578.75
2023-04-28T03:24:05.543Z,101574.34
2023-04-28T03:26:37.249Z,101577.28
2023-04-28T03:29:06.877Z,101570.34
2023-04-28T03:31:36.152Z,101574.69
2023-04-28T03:34:05.406Z,101570.28
2023-04-28T03:36:34.602Z,101566.78
2023-04-28T03:39:10.860Z,101575.34
2023-04-28T03:41:41.362Z,101566.84
2023-04-28T03:44:39.458Z,101555.47
2023-04-28T03:47:09.867Z,101557.84
2023-04-28T03:49:39.741Z,101549.34
2023-04-28T03:52:08.848Z,101545.78
2023-04-28T03:54:37.970Z,101539.66
2023-04-28T03:57:08.524Z,101544.88
2023-04-28T03:59:37.673Z,101542.75
2023-04-28T04:02:06.793Z,101529.00
2023-04-28T04:04:36.182Z,101534.41
2023-04-28T04:07:06.294Z,101537.59
2023-04-28T04:09:35.408Z,101530.56
2023-04-28T04:12:04.668Z,101526.81
2023-04-28T04:14:35.126Z,101527.53
2023-04-28T04:17:04.365Z,101523.13
2023-04-28T04:19:33.794Z,101519.44
2023-04-28T04:22:02.878Z,101517.38
2023-04-28T04:24:32.885Z,101519.78
2023-04-28T04:27:02.251Z,101511.75
2023-04-28T04:29:37.262Z,101505.53
2023-04-28T04:32:11.315Z,101511.16
2023-04-28T04:34:40.657Z,101509.81
2023-04-28T04:37:10.298Z,101504.63
2023-04-28T04:39:44.946Z,101495.66
2023-04-28T04:42:24.792Z,101492.16
2023-04-28T04:45:13.534Z,101489.81
2023-04-28T04:47:44.593Z,101487.91
2023-04-28T04:50:14.186Z,101480.41
2023-04-28T04:52:43.320Z,101486.41
2023-04-28T04:55:12.527Z,101483.38
2023-04-28T04:57:43.664Z,101480.22
2023-04-28T05:00:22.217Z,101468.44
2023-04-28T05:02:52.041Z,101462.19
2023-04-28T05:05:22.856Z,101463.94
2023-04-28T05:08:07.293Z,101465.25
2023-04-28T05:10:37.321Z,101459.44
2023-04-28T05:13:06.975Z,101458.22
2023-04-28T05:15:37.669Z,101445.53
2023-04-28T05:18:29.874Z,101448.44
2023-04-28T05:20:58.990Z,101445.41
2023-04-28T05:23:28.919Z,101440.88
2023-04-28T05:25:58.109Z,101439.75
2023-04-28T05:28:27.660Z,101432.88
2023-04-28T05:30:59.317Z,101428.56
2023-04-28T05:33:28.540Z,101428.16
2023-04-28T05:35:57.634Z,101428.63
2023-04-28T05:38:26.793Z,101416.44
2023-04-28T05:40:57.211Z,101422.81
2023-04-28T05:43:26.339Z,101408.31
2023-04-28T05:45:56.311Z,101414.94
2023-04-28T05:48:27.077Z,101417.66
2023-04-28T05:50:56.872Z,101413.75
2023-04-28T05:53:26.701Z,101417.06
2023-04-28T05:55:55.973Z,101402.09
2023-04-28T05:58:25.129Z,101405.50
2023-04-28T06:00:58.190Z,101399.16
2023-04-28T06:03:28.832Z,101403.31
2023-04-28T06:05:58.169Z,101397.97
2023-04-28T06:08:27.724Z,101390.56
2023-04-28T06:10:56.847Z,101395.56
2023-04-28T06:13:26.050Z,101385.66
2023-04-28T06:15:55.253Z,101378.09
2023-04-28T06:18:24.611Z,101376.47
2023-04-28T06:20:55.117Z,101372.78
2023-04-28T06:23:24.196Z,101378.03
2023-04-28T06:25:53.725Z,101371.72
2023-04-28T06:28:22.854Z,101372.75
2023-04-28T06:30:51.960Z,101365.00
2023-04-28T06:33:21.255Z,101374.19
2023-04-28T06:35:50.450Z,101369.38
2023-04-28T06:38:21.518Z,101362.81
2023-04-28T06:40:51.492Z,101373.13
2023-04-28T06:43:22.028Z,101369.13
2023-04-28T06:46:09.828Z,101367.00
2023-04-28T06:48:39.402Z,101360.38
2023-04-28T06:51:08.584Z,101362.09
2023-04-28T06:53:39.212Z,101366.00
2023-04-28T06:56:11.643Z,101373.94
2023-04-28T06:58:40.975Z,101367.72
2023-04-28T07:01:10.804Z,101367.84
2023-04-28T07:03:39.954Z,101367.75
2023-04-28T07:06:09.495Z,101363.69
2023-04-28T07:08:41.186Z,101355.34
2023-04-28T07:11:10.353Z,101356.50
2023-04-28T07:13:39.441Z,101357.59
2023-04-28T07:16:10.262Z,101349.16
2023-04-28T07:18:39.331Z,101361.25
2023-04-28T07:21:08.516Z,101351.91
2023-04-28T07:23:40.914Z,101354.63
2023-04-28T07:26:10.046Z,101349.97
2023-04-28T07:28:39.185Z,101341.94
2023-04-28T07:31:08.330Z,101339.06
2023-04-28T07:33:37.400Z,101339.91
2023-04-28T07:36:07.275Z,101336.91
2023-04-28T07:38:36.740Z,101340.28
2023-04-28T07:41:10.051Z,101324.53
2023-04-28T07:43:40.912Z,101331.19
2023-04-28T07:46:10.303Z,101332.03
2023-04-28T07:48:39.622Z,101319.97
2023-04-28T07:51:08.753Z,101314.66
2023-04-28T07:53:37.867Z,101333.53
2023-04-28T07:56:08.725Z,101331.13
2023-04-28T07:58:38.175Z,101327.88
2023-04-28T08:01:07.320Z,101325.69
2023-04-28T08:03:36.629Z,101323.13
2023-04-28T08:06:06.152Z,101315.31
2023-04-28T08:08:35.320Z,101312.69
2023-04-28T08:11:04.945Z,101311.22
2023-04-28T08:13:36.105Z,101306.84
2023-04-28T08:16:05.659Z,101309.94
2023-04-28T08:18:34.787Z,101318.25
2023-04-28T08:21:03.926Z,101313.13
2023-04-28T08:23:33.000Z,101307.69
2023-04-28T08:26:02.074Z,101309.97
2023-04-28T08:28:31.314Z,101301.84
2023-04-28T08:31:01.856Z,101298.47
2023-04-28T08:33:30.978Z,101295.09
2023-04-28T08:36:00.186Z,101291.16
2023-04-28T08:38:29.402Z,101294.00
2023-04-28T08:40:58.497Z,101292.28
2023-04-28T08:43:28.769Z,101293.94
2023-04-28T08:45:58.533Z,101298.38
2023-04-28T08:48:29.888Z,101297.38
2023-04-28T08:51:02.378Z,101288.97
2023-04-28T08:53:36.291Z,101281.50
2023-04-28T08:56:17.236Z,101297.38
2023-04-28T08:58:46.569Z,101283.91
2023-04-28T09:01:17.141Z,101280.53
2023-04-28T09:03:49.764Z,101276.28
2023-04-28T09:06:20.344Z,101274.53
2023-04-28T09:08:50.439Z,101264.81
2023-04-28T09:11:21.436Z,101269.22
2023-04-28T09:13:51.262Z,101262.38
2023-04-28T09:16:20.904Z,101260.56
2023-04-28T09:18:59.837Z,101251.13
2023-04-28T09:21:30.046Z,101249.00
2023-04-28T09:24:00.412Z,101249.59
2023-04-28T09:26:50.589Z,101244.91
2023-04-28T09:29:21.100Z,101249.03
2023-04-28T09:31:51.530Z,101237.06
2023-04-28T09:34:22.986Z,101236.03
2023-04-28T09:36:53.013Z,101231.09
2023-04-28T09:39:32.573Z,101240.03
2023-04-28T09:42:04.676Z,101233.06
2023-04-28T09:44:33.768Z,101235.53
2023-04-28T09:47:20.586Z,101237.47
2023-04-28T09:49:57.201Z,101229.16
2023-04-28T09:52:27.018Z,101218.59
2023-04-28T09:54:57.510Z,101227.50
2023-04-28T09:57:27.424Z,101219.34
2023-04-28T09:59:58.331Z,101221.34
2023-04-28T10:05:02.262Z,101221.50
2023-04-28T10:07:35.590Z,101226.13
2023-04-28T10:10:05.614Z,101217.56
2023-04-28T10:12:35.301Z,101208.72
2023-04-28T10:15:05.231Z,101218.25
2023-04-28T10:17:35.089Z,101209.06
2023-04-28T10:20:08.595Z,101211.22
2023-04-28T10:22:52.515Z,101198.25
2023-04-28T10:25:29.782Z,101196.13
2023-04-28T10:28:00.606Z,101191.47
2023-04-28T10:30:30.366Z,101197.78
2023-04-28T10:33:26.734Z,101183.50
2023-04-28T10:35:57.795Z,101180.84
2023-04-28T10:38:26.899Z,101171.00
2023-04-28T10:41:01.041Z,101170.53
2023-04-28T10:43:39.468Z,101174.94
2023-04-28T10:46:10.309Z,101174.06
2023-04-28T10:49:06.880Z,101172.22
2023-04-28T10:51:38.097Z,101169.13
2023-04-28T10:54:21.235Z,101165.88
2023-04-28T10:57:19.374Z,101160.81
2023-04-28T10:59:49.234Z,101155.47
2023-04-28T11:02:44.459Z,101149.69
2023-04-28T11:05:23.352Z,101149.50
2023-04-28T11:08:25.829Z,101150.94
2023-04-28T11:11:22.783Z,101158.03
2023-04-28T11:13:52.707Z,101155.34
2023-04-28T11:16:23.994Z,101144.41
2023-04-28T11:19:07.269Z,101146.16
2023-04-28T11:21:36.381Z,101142.84
2023-04-28T11:24:12.513Z,101143.13
2023-04-28T11:26:43.664Z,101142.06
2023-04-28T11:29:14.889Z,101133.94
2023-04-28T11:31:51.374Z,101133.50
2023-04-28T11:34:22.342Z,101137.53
2023-04-28T11:36:53.419Z,101127.44
2023-04-28T11:39:29.644Z,101130.25
2023-04-28T11:42:02.270Z,101128.66
2023-04-28T11:44:32.925Z,101123.84
2023-04-28T11:47:03.959Z,101122.59
2023-04-28T11:49:42.771Z,101116.28
2023-04-28T11:52:12.769Z,101110.03
2023-04-28T11:54:43.380Z,101107.28
2023-04-28T11:57:21.058Z,101099.53
2023-04-28T11:59:50.854Z,101098.53
2023-04-28T12:02:29.120Z,101103.59
2023-04-28T12:05:06.648Z,101098.97
2023-04-28T12:07:44.239Z,101098.28
2023-04-28T12:10:15.733Z,101104.19
2023-04-28T12:12:51.739Z,101091.81
2023-04-28T12:15:24.725Z,101083.44
2023-04-28T12:17:53.904Z,101089.94
2023-04-28T12:20:37.085Z,101101.88
2023-04-28T12:23:07.352Z,101089.75
2023-04-28T12:25:45.447Z,101083.16
2023-04-28T12:28:16.158Z,101074.19
2023-04-28T12:30:45.453Z,101078.28
2023-04-28T12:33:25.133Z,101082.47
2023-04-28T12:35:55.037Z,101071.91
2023-04-28T12:38:27.111Z,101068.72
2023-04-28T12:40:56.544Z,101061.97
2023-04-28T12:43:29.028Z,101061.47
2023-04-28T12:45:58.210Z,101064.94
2023-04-28T12:48:28.081Z,101066.41
2023-04-28T12:50:57.256Z,101059.22
2023-04-28T12:53:26.355Z,101062.63
2023-04-28T12:55:55.853Z,101057.16
2023-04-28T12:58:26.712Z,101050.91
2023-04-28T13:00:55.846Z,101051.69
2023-04-28T13:03:25.075Z,101048.78
2023-04-28T13:05:54.316Z,101047.44
2023-04-28T13:08:23.367Z,101043.94
2023-04-28T13:10:52.508Z,101035.75
2023-04-28T13:13:21.544Z,101042.13
2023-04-28T13:15:52.717Z,101040.91
2023-04-28T13:18:23.448Z,101036.78
2023-04-28T13:20:52.521Z,101030.56
2023-04-28T13:23:21.708Z,101033.78
2023-04-28T13:25:51.480Z,101028.03
2023-04-28T13:28:21.053Z,101038.03
2023-04-28T13:30:51.482Z,101029.09
2023-04-28T13:33:20.516Z,101029.53
2023-04-28T13:35:49.607Z,101031.41
2023-04-28T13:38:19.505Z,101008.59
2023-04-28T13:40:48.925Z,101015.91
2023-04-28T13:43:18.086Z,101021.28
2023-04-28T13:45:47.325Z,101011.69
2023-04-28T13:48:17.791Z,101016.59
2023-04-28T13:50:47.191Z,101007.59
2023-04-28T13:53:17.269Z,101009.03
2023-04-28T13:55:47.421Z,101010.09
2023-04-28T13:58:17.355Z,101001.75
2023-04-28T14:00:46.516Z,101003.13
2023-04-28T14:03:17.392Z,101003.06
2023-04-28T14:05:49.763Z,101004.72
2023-04-28T14:08:20.752Z,100994.47
2023-04-28T14:10:50.533Z,101000.47
2023-04-28T14:13:20.498Z,100997.75
2023-04-28T14:15:58.565Z,100998.03
2023-04-28T14:18:29.888Z,100990.78
2023-04-28T14:20:58.916Z,100989.44
2023-04-28T14:23:28.629Z,100985.84
2023-04-28T14:25:58.148Z,100990.75
2023-04-28T14:28:27.507Z,100993.19
2023-04-28T14:30:56.869Z,100988.75
2023-04-28T14:33:26.006Z,100978.06
2023-04-28T14:35:56.454Z,100970.44
2023-04-28T14:38:25.586Z,100966.00
2023-04-28T14:40:54.654Z,100964.66
2023-04-28T14:43:24.099Z,100974.38
2023-04-28T14:45:53.395Z,100979.25
2023-04-28T14:48:22.958Z,100978.72
2023-04-28T14:50:52.348Z,100968.56
2023-04-28T14:53:23.606Z,100962.59
2023-04-28T14:55:53.696Z,100965.75
2023-04-28T14:58:23.991Z,100962.38
2023-04-28T15:00:53.251Z,100958.75
2023-04-28T15:03:22.601Z,100945.78
2023-04-28T15:05:51.741Z,100951.66
2023-04-28T15:08:22.320Z,100954.44
2023-04-28T15:10:51.675Z,100951.44
2023-04-28T15:13:22.049Z,100945.66
2023-04-28T15:15:51.585Z,100941.41
2023-04-28T15:18:21.048Z,100938.84
2023-04-28T15:20:50.452Z,100937.41
2023-04-28T15:23:20.222Z,100938.09
2023-04-28T15:25:53.331Z,100935.69
2023-04-28T15:28:23.576Z,100931.47
2023-04-28T15:30:52.641Z,100933.31
2023-04-28T15:33:21.841Z,100931.06
2023-04-28T15:35:51.168Z,100936.38
2023-04-28T15:38:20.284Z,100928.91
2023-04-28T15:40:50.727Z,100925.34
2023-04-28T15:43:20.145Z,100924.41
2023-04-28T15:45:49.303Z,100923.88
2023-04-28T15:48:18.501Z,100918.38
2023-04-28T15:50:47.780Z,100917.84
2023-04-28T15:53:17.366Z,100918.47
2023-04-28T15:55:46.475Z,100920.81
2023-04-28T15:58:17.015Z,100918.47
2023-04-28T16:00:47.495Z,100916.94
2023-04-28T16:03:16.853Z,100910.44
2023-04-28T16:05:46.583Z,100902.59
2023-04-28T16:08:15.840Z,100902.59
2023-04-28T16:10:44.956Z,100903.69
2023-04-28T16:13:14.522Z,100891.47
2023-04-28T16:15:45.840Z,100889.72
2023-04-28T16:18:15.538Z,100892.91
2023-04-28T16:20:48.427Z,100887.75
2023-04-28T16:23:18.675Z,100893.03
2023-04-28T16:25:50.598Z,100893.59
2023-04-28T16:28:19.686Z,100881.84
2023-04-28T16:30:50.458Z,100881.41
2023-04-28T16:33:19.574Z,100877.81
2023-04-28T16:35:55.945Z,100877.16
2023-04-28T16:38:25.120Z,100875.06
2023-04-28T16:40:54.238Z,100879.75
2023-04-28T16:43:23.332Z,100878.97
2023-04-28T16:45:54.097Z,100871.47
2023-04-28T16:48:23.642Z,100871.31
2023-04-28T16:50:52.720Z,100862.63
2023-04-28T16:53:21.784Z,100864.13
2023-04-28T16:55:50.966Z,100859.16
2023-04-28T16:58:20.058Z,100851.41
2023-04-28T17:00:49.231Z,100856.13
2023-04-28T17:03:19.797Z,100855.41
2023-04-28T17:05:48.975Z,100856.00
2023-04-28T17:08:18.438Z,100855.19
2023-04-28T17:10:47.613Z,100858.50
2023-04-28T17:13:16.641Z,100862.69
2023-04-28T17:15:45.799Z,100862.28
2023-04-28T17:18:14.962Z,100863.38
2023-04-28T17:20:45.408Z,100871.28
2023-04-28T17:23:15.106Z,100880.13
2023-04-28T17:25:44.372Z,100885.13
2023-04-28T17:28:13.537Z,100884.00
2023-04-28T17:30:47.120Z,100884.66
2023-04-28T17:33:17.389Z,100874.41
2023-04-28T17:35:47.972Z,100871.47
2023-04-28T17:38:17.236Z,100875.72
2023-04-28T17:40:48.660Z,100882.91
2023-04-28T17:43:20.218Z,100895.25
2023-04-28T17:45:49.387Z,100898.28
2023-04-28T17:48:18.561Z,100910.34
2023-04-28T17:50:49.332Z,100909.00
2023-04-28T17:53:19.071Z,100912.34
2023-04-28T17:55:48.321Z,100919.88
2023-04-28T17:58:18.138Z,100929.09
2023-04-28T18:00:47.437Z,100924.13
2023-04-28T18:03:16.781Z,100935.25
2023-04-28T18:05:46.079Z,100941.56
2023-04-28T18:08:16.652Z,100944.31
2023-04-28T18:10:45.859Z,100945.13
2023-04-28T18:13:15.312Z,100946.34
2023-04-28T18:15:46.216Z,100944.09
2023-04-28T18:18:15.717Z,100952.91
2023-04-28T18:20:44.848Z,100947.78
2023-04-28T18:23:15.516Z,100953.50
2023-04-28T18:25:45.278Z,100953.03
2023-04-28T18:28:14.433Z,100952.91
2023-04-28T18:30:42.458Z,100957.81
2023-04-28T18:33:11.890Z,100965.19
2023-04-28T18:35:41.275Z,100965.19
2023-04-28T18:38:10.570Z,100972.81
2023-04-28T18:40:41.660Z,100975.22
2023-04-28T18:43:11.423Z,100968.28
2023-04-28T18:45:41.667Z,100968.81
2023-04-28T18:48:13.525Z,100961.31
2023-04-28T18:50:43.007Z,100953.22
2023-04-28T18:53:12.744Z,100952.97
2023-04-28T18:55:43.271Z,100957.00
2023-04-28T18:58:15.111Z,100954.53
2023-04-28T19:00:45.774Z,100956.34
2023-04-28T19:03:16.201Z,100960.75
2023-04-28T19:05:45.609Z,100964.19
2023-04-28T19:08:14.814Z,100966.81
2023-04-28T19:10:45.507Z,100960.88
2023-04-28T19:13:14.950Z,100962.66
2023-04-28T19:15:44.167Z,100968.84
2023-04-28T19:18:13.512Z,100969.44
2023-04-28T19:20:42.678Z,100975.41
2023-04-28T19:23:11.937Z,100978.50
2023-04-28T19:25:41.184Z,100982.19
2023-04-28T19:28:11.956Z,100982.44
2023-04-28T19:30:41.135Z,100989.56
2023-04-28T19:33:10.374Z,100985.75
2023-04-28T19:35:39.509Z,100991.25
2023-04-28T19:38:09.510Z,100989.09
2023-04-28T19:40:39.716Z,100995.28
2023-04-28T19:43:10.316Z,100993.72
2023-04-28T19:45:39.577Z,100997.06
2023-04-28T19:48:08.885Z,100999.09
2023-04-28T19:50:38.532Z,101001.22
2023-04-28T19:53:08.039Z,100998.97
2023-04-28T19:55:37.600Z,101001.13
2023-04-28T19:58:06.994Z,101002.56
2023-04-28T20:00:37.752Z,100994.44
2023-04-28T20:03:07.014Z,101001.31
2023-04-28T20:05:39.536Z,101002.16
2023-04-28T20:08:08.696Z,101002.06
2023-04-28T20:10:37.888Z,100996.34
2023-04-28T20:13:07.204Z,101001.81
2023-04-28T20:15:37.756Z,101003.50
2023-04-28T20:18:06.973Z,101000.03
2023-04-28T20:20:36.395Z,101000.97
2023-04-28T20:23:05.797Z,101000.13
2023-04-28T20:25:38.366Z,101002.25
2023-04-28T20:28:07.706Z,100999.78
2023-04-28T20:30:38.374Z,100999.78
2023-04-28T20:33:07.561Z,100999.03
2023-04-28T20:35:38.760Z,101000.13
2023-04-28T20:38:08.061Z,100993.59
2023-04-28T20:40:37.535Z,100995.97
2023-04-28T20:43:06.668Z,100996.06
2023-04-28T20:45:37.192Z,101004.66
2023-04-28T20:48:07.212Z,101000.47
2023-04-28T20:50:39.754Z,100995.38
2023-04-28T20:53:09.088Z,101000.81
2023-04-28T20:55:38.215Z,101001.31
2023-04-28T20:58:07.658Z,100997.84
2023-04-28T21:00:40.416Z,100997.59
2023-04-28T21:03:15.470Z,101000.94
2023-04-28T21:05:46.520Z,100988.06
2023-04-28T21:08:16.398Z,100987.25
2023-04-28T21:10:45.631Z,100985.09
2023-04-28T21:13:14.784Z,100978.44
2023-04-28T21:15:45.300Z,100980.59
2023-04-28T21:18:14.643Z,100981.97
2023-04-28T21:20:43.710Z,100973.66
2023-04-28T21:23:13.009Z,100967.38
2023-04-28T21:25:42.078Z,100967.13
2023-04-28T21:28:11.189Z,100964.06
2023-04-28T21:30:40.925Z,100971.16
2023-04-28T21:33:11.409Z,100968.28
2023-04-28T21:35:40.634Z,100965.81
2023-04-28T21:38:10.856Z,100969.97
2023-04-28T21:40:40.124Z,100963.66
2023-04-28T21:43:09.199Z,100958.66
2023-04-28T21:45:38.241Z,100969.13
2023-04-28T21:48:08.108Z,100960.31
2023-04-28T21:50:38.777Z,100967.69
2023-04-28T21:53:07.898Z,100969.00
2023-04-28T21:55:36.975Z,100968.38
2023-04-28T21:58:06.431Z,100966.25
2023-04-28T22:00:40.702Z,100961.25
2023-04-28T22:03:10.478Z,100962.19
2023-04-28T22:05:41.909Z,100957.44
2023-04-28T22:08:11.500Z,100952.00
2023-04-28T22:10:41.039Z,100957.19
2023-04-28T22:13:10.443Z,100956.13
2023-04-28T22:15:40.120Z,100958.28
2023-04-28T22:18:09.384Z,100955.28
2023-04-28T22:20:40.273Z,100960.41
2023-04-28T22:23:09.380Z,100958.72
2023-04-28T22:25:38.671Z,100956.25
2023-04-28T22:28:07.896Z,100957.91
2023-04-28T22:30:36.976Z,100956.03
2023-04-28T22:33:06.161Z,100954.81
2023-04-28T22:35:35.736Z,100955.06
2023-04-28T22:38:06.571Z,100955.84
2023-04-28T22:40:35.819Z,100955.84
2023-04-28T22:43:04.957Z,100952.41
2023-04-28T22:45:34.088Z,100951.09
2023-04-28T22:48:03.226Z,100951.09
2023-04-28T22:50:32.340Z,100955.47
2023-04-28T22:53:01.407Z,100955.72
2023-04-28T22:55:32.172Z,100962.94
2023-04-28T22:58:01.230Z,100961.91
2023-04-28T23:00:30.511Z,100960.44
2023-04-28T23:02:59.663Z,100969.16
2023-04-28T23:05:28.832Z,100969.50
2023-04-28T23:07:57.873Z,100973.22
2023-04-28T23:10:26.904Z,100972.44
2023-04-28T23:12:57.366Z,100972.09
2023-04-28T23:15:26.422Z,100975.19
2023-04-28T23:17:55.512Z,100976.41
2023-04-28T23:20:24.867Z,100976.03
2023-04-28T23:22:56.644Z,100972.34
2023-04-28T23:25:25.853Z,100979.66
2023-04-28T23:27:56.294Z,100974.56
2023-04-28T23:30:25.506Z,100972.78
2023-04-28T23:32:54.698Z,100964.84
2023-04-28T23:35:23.796Z,100969.13
2023-04-28T23:37:53.325Z,100971.59
2023-04-28T23:40:22.439Z,100964.00
2023-04-28T23:42:51.548Z,100969.22
2023-04-28T23:45:22.101Z,100967.66
2023-04-28T23:47:51.301Z,100972.13
2023-04-28T23:50:20.533Z,100970.09
2023-04-28T23:52:49.730Z,100976.97
2023-04-28T23:55:18.896Z,100971.84
2023-04-28T23:57:48.023Z,100972.25
